createdAt,value
2023-02-16T00:00:20.954Z,145.20
2023-02-16T00:02:51.926Z,145.43
2023-02-16T00:05:30.144Z,153.90
2023-02-16T00:07:58.558Z,142.15
2023-02-16T00:10:27.160Z,145.60
2023-02-16T00:13:13.729Z,139.93
2023-02-16T00:15:41.761Z,144.50
2023-02-16T00:18:19.827Z,157.60
2023-02-16T00:20:50.192Z,141.60
2023-02-16T00:23:17.977Z,145.25
2023-02-16T00:25:45.751Z,143.93
2023-02-16T00:28:15.690Z,145.02
2023-02-16T00:30:46.132Z,128.20
2023-02-16T00:33:16.326Z,141.98
2023-02-16T00:35:44.825Z,143.32
2023-02-16T00:38:13.050Z,129.50
2023-02-16T00:40:41.308Z,136.90
2023-02-16T00:43:11.396Z,139.80
2023-02-16T00:45:39.294Z,129.20
2023-02-16T00:48:07.109Z,135.98
2023-02-16T00:50:35.718Z,131.20
2023-02-16T00:53:03.601Z,131.93
2023-02-16T00:55:33.689Z,130.68
2023-02-16T00:58:20.013Z,137.80
2023-02-16T01:00:49.691Z,139.20
2023-02-16T01:03:19.195Z,134.43
2023-02-16T01:05:47.264Z,138.25
2023-02-16T01:08:35.403Z,134.80
2023-02-16T01:11:10.314Z,132.27
2023-02-16T01:13:50.747Z,138.07
2023-02-16T01:16:20.515Z,129.32
2023-02-16T01:18:48.809Z,134.15
2023-02-16T01:21:16.744Z,129.75
2023-02-16T01:23:45.765Z,133.82
2023-02-16T01:26:18.438Z,139.68
2023-02-16T01:28:47.938Z,126.70
2023-02-16T01:31:17.448Z,131.98
2023-02-16T01:33:45.314Z,133.80
2023-02-16T01:36:27.214Z,132.57
2023-02-16T01:38:55.035Z,127.43
2023-02-16T01:41:41.376Z,135.30
2023-02-16T01:44:38.337Z,127.47
2023-02-16T01:47:13.592Z,143.85
2023-02-16T01:49:41.455Z,133.85
2023-02-16T01:52:15.082Z,124.75
2023-02-16T01:54:45.459Z,128.13
2023-02-16T01:57:31.946Z,133.45
2023-02-16T01:59:59.746Z,128.63
2023-02-16T02:02:29.762Z,136.93
2023-02-16T02:05:21.672Z,130.75
2023-02-16T02:08:02.623Z,127.90
2023-02-16T02:10:36.441Z,126.32
2023-02-16T02:13:27.545Z,126.72
2023-02-16T02:15:58.018Z,130.93
2023-02-16T02:18:26.637Z,133.65
2023-02-16T02:21:17.367Z,129.07
2023-02-16T02:24:16.460Z,129.00
2023-02-16T02:26:47.242Z,133.55
2023-02-16T02:29:37.975Z,128.95
2023-02-16T02:32:29.939Z,132.23
2023-02-16T02:35:10.002Z,128.63
2023-02-16T02:37:47.414Z,134.38
2023-02-16T02:40:15.305Z,123.13
2023-02-16T02:42:55.055Z,132.52
2023-02-16T02:45:29.299Z,136.45
2023-02-16T02:47:58.612Z,126.00
2023-02-16T02:50:41.863Z,127.25
2023-02-16T02:53:12.356Z,125.28
2023-02-16T02:56:01.749Z,123.78
2023-02-16T02:58:51.271Z,123.93
2023-02-16T03:01:19.557Z,126.68
2023-02-16T03:03:49.806Z,130.65
2023-02-16T03:06:26.146Z,127.95
2023-02-16T03:09:01.211Z,123.63
2023-02-16T03:11:48.628Z,127.88
2023-02-16T03:14:21.336Z,129.60
2023-02-16T03:17:11.549Z,136.45
2023-02-16T03:19:59.916Z,130.65
2023-02-16T03:22:47.348Z,124.18
2023-02-16T03:25:34.182Z,140.70
2023-02-16T03:28:22.040Z,130.73
2023-02-16T03:30:50.750Z,127.90
2023-02-16T03:33:18.681Z,133.93
2023-02-16T03:35:46.985Z,143.50
2023-02-16T03:38:14.819Z,142.43
2023-02-16T03:40:45.815Z,140.02
2023-02-16T03:43:14.410Z,137.05
2023-02-16T03:45:42.998Z,127.50
2023-02-16T03:48:10.997Z,133.98
2023-02-16T03:50:38.799Z,138.45
2023-02-16T03:53:07.450Z,129.05
2023-02-16T03:55:42.755Z,134.75
2023-02-16T03:58:11.843Z,133.23
2023-02-16T04:00:40.290Z,138.88
2023-02-16T04:03:09.140Z,126.95
2023-02-16T04:05:37.298Z,122.05
2023-02-16T04:08:05.621Z,126.18
2023-02-16T04:10:34.778Z,121.13
2023-02-16T04:13:02.689Z,126.10
2023-02-16T04:15:31.403Z,138.10
2023-02-16T04:17:59.458Z,131.75
2023-02-16T04:20:31.654Z,124.32
2023-02-16T04:22:59.487Z,125.25
2023-02-16T04:25:27.640Z,131.45
2023-02-16T04:27:55.646Z,127.35
2023-02-16T04:30:24.923Z,128.20
2023-02-16T04:32:52.875Z,120.35
2023-02-16T04:35:21.521Z,131.95
2023-02-16T04:37:49.569Z,132.05
2023-02-16T04:40:18.907Z,135.68
2023-02-16T04:42:46.957Z,137.48
2023-02-16T04:45:15.026Z,136.57
2023-02-16T04:47:42.954Z,132.98
2023-02-16T04:50:10.931Z,139.00
2023-02-16T04:52:38.955Z,133.75
2023-02-16T04:55:07.746Z,145.30
2023-02-16T04:57:35.555Z,135.77
2023-02-16T05:00:03.596Z,132.57
2023-02-16T05:02:33.188Z,134.82
2023-02-16T05:05:00.948Z,143.40
2023-02-16T05:07:28.786Z,137.20
2023-02-16T05:09:56.631Z,135.88
2023-02-16T05:12:43.240Z,142.90
2023-02-16T05:15:11.118Z,137.38
2023-02-16T05:17:39.478Z,141.25
2023-02-16T05:20:07.530Z,135.95
2023-02-16T05:22:37.877Z,134.27
2023-02-16T05:25:06.679Z,133.43
2023-02-16T05:27:34.535Z,135.38
2023-02-16T05:30:02.417Z,134.82
2023-02-16T05:32:30.296Z,138.15
2023-02-16T05:34:58.121Z,136.65
2023-02-16T05:37:25.901Z,138.65
2023-02-16T05:39:53.949Z,139.13
2023-02-16T05:42:21.716Z,141.95
2023-02-16T05:44:52.255Z,141.55
2023-02-16T05:47:20.047Z,149.63
2023-02-16T05:49:47.959Z,141.38
2023-02-16T05:52:15.756Z,142.68
2023-02-16T05:54:43.617Z,143.40
2023-02-16T05:57:11.457Z,136.88
2023-02-16T05:59:39.239Z,152.82
2023-02-16T06:02:09.799Z,137.68
2023-02-16T06:04:38.835Z,140.32
2023-02-16T06:07:06.643Z,152.60
2023-02-16T06:09:34.718Z,137.88
2023-02-16T06:12:02.567Z,134.65
2023-02-16T06:14:30.688Z,134.93
2023-02-16T06:16:58.891Z,130.38
2023-02-16T06:19:26.758Z,134.32
2023-02-16T06:21:54.564Z,133.60
2023-02-16T06:24:22.389Z,133.18
2023-02-16T06:26:50.228Z,131.60
2023-02-16T06:29:18.004Z,125.63
2023-02-16T06:31:46.056Z,129.77
2023-02-16T06:34:13.987Z,127.30
2023-02-16T06:36:42.693Z,118.47
2023-02-16T06:39:10.640Z,130.68
2023-02-16T06:41:40.464Z,132.35
2023-02-16T06:44:13.527Z,130.32
2023-02-16T06:46:42.319Z,142.77
2023-02-16T06:49:14.726Z,141.43
2023-02-16T06:51:42.756Z,132.90
2023-02-16T06:54:10.674Z,133.27
2023-02-16T06:56:38.518Z,132.75
2023-02-16T06:59:06.765Z,138.73
2023-02-16T07:01:34.648Z,132.38
2023-02-16T07:04:02.584Z,132.68
2023-02-16T07:06:30.998Z,133.90
2023-02-16T07:08:59.761Z,139.38
2023-02-16T07:11:27.654Z,147.15
2023-02-16T07:13:55.596Z,139.52
2023-02-16T07:16:23.531Z,132.52
2023-02-16T07:18:53.440Z,129.13
2023-02-16T07:21:21.298Z,136.25
2023-02-16T07:23:49.217Z,135.82
2023-02-16T07:26:18.073Z,136.32
2023-02-16T07:28:45.961Z,138.68
2023-02-16T07:31:14.901Z,139.13
2023-02-16T07:33:42.851Z,141.52
2023-02-16T07:36:11.124Z,136.73
2023-02-16T07:38:39.282Z,131.88
2023-02-16T07:41:09.534Z,141.43
2023-02-16T07:43:39.113Z,141.27
2023-02-16T07:46:06.977Z,149.77
2023-02-16T07:48:34.995Z,141.10
2023-02-16T07:51:03.213Z,137.35
2023-02-16T07:53:31.313Z,148.10
2023-02-16T07:55:59.180Z,147.57
2023-02-16T07:58:32.128Z,132.60
2023-02-16T08:01:15.964Z,146.82
2023-02-16T08:03:43.975Z,137.52
2023-02-16T08:06:12.269Z,131.95
2023-02-16T08:08:40.422Z,133.88
2023-02-16T08:11:11.340Z,123.32
2023-02-16T08:13:39.622Z,121.95
2023-02-16T08:16:18.267Z,127.18
2023-02-16T08:18:46.149Z,124.00
2023-02-16T08:21:21.930Z,123.85
2023-02-16T08:24:08.876Z,126.28
2023-02-16T08:26:39.308Z,128.75
2023-02-16T08:29:10.162Z,118.40
2023-02-16T08:31:38.435Z,117.03
2023-02-16T08:34:06.968Z,126.53
2023-02-16T08:36:36.059Z,118.13
2023-02-16T08:39:05.256Z,118.03
2023-02-16T08:41:34.238Z,125.28
2023-02-16T08:44:02.526Z,128.35
2023-02-16T08:46:31.013Z,123.68
2023-02-16T08:49:02.490Z,123.70
2023-02-16T08:51:31.661Z,118.32
2023-02-16T08:54:00.292Z,107.05
2023-02-16T08:56:29.921Z,105.30
2023-02-16T08:58:58.095Z,109.35
2023-02-16T09:01:25.945Z,115.93
2023-02-16T09:03:54.069Z,105.85
2023-02-16T09:06:22.556Z,115.38
2023-02-16T09:08:54.742Z,107.25
2023-02-16T09:11:23.091Z,110.30
2023-02-16T09:13:51.562Z,111.15
2023-02-16T09:16:21.057Z,112.57
2023-02-16T09:18:51.047Z,110.07
2023-02-16T09:21:20.822Z,112.28
2023-02-16T09:23:50.061Z,109.65
2023-02-16T09:26:21.817Z,121.40
2023-02-16T09:28:50.565Z,97.78
2023-02-16T09:31:20.417Z,98.10
2023-02-16T09:33:48.391Z,97.75
2023-02-16T09:36:16.335Z,96.93
2023-02-16T09:38:44.228Z,96.13
2023-02-16T09:41:17.835Z,98.25
2023-02-16T09:43:49.415Z,95.60
2023-02-16T09:46:21.226Z,95.10
2023-02-16T09:48:51.053Z,90.90
2023-02-16T09:51:29.466Z,90.32
2023-02-16T09:54:24.756Z,86.97
2023-02-16T09:56:55.460Z,90.95
2023-02-16T09:59:38.220Z,85.45
2023-02-16T10:02:23.384Z,89.87
2023-02-16T10:05:17.488Z,94.15
2023-02-16T10:08:03.852Z,91.10
2023-02-16T10:10:46.960Z,100.07
2023-02-16T10:13:21.877Z,92.03
2023-02-16T10:15:52.958Z,108.78
2023-02-16T10:18:27.730Z,115.47
2023-02-16T10:20:56.757Z,116.22
2023-02-16T10:23:43.089Z,132.95
2023-02-16T10:26:14.167Z,128.45
2023-02-16T10:28:55.850Z,135.55
2023-02-16T10:31:28.778Z,145.77
2023-02-16T10:34:15.629Z,143.30
2023-02-16T10:36:58.086Z,131.23
2023-02-16T10:39:31.013Z,132.23
2023-02-16T10:42:03.673Z,141.20
2023-02-16T10:44:37.247Z,147.50
2023-02-16T10:47:07.428Z,142.73
2023-02-16T10:49:37.246Z,134.05
2023-02-16T10:52:05.636Z,133.30
2023-02-16T10:54:37.450Z,140.25
2023-02-16T10:57:14.081Z,144.90
2023-02-16T10:59:43.401Z,129.57
2023-02-16T11:02:17.318Z,140.65
2023-02-16T11:04:47.592Z,138.10
2023-02-16T11:07:17.059Z,135.73
2023-02-16T11:09:46.470Z,136.57
2023-02-16T11:12:16.184Z,143.00
2023-02-16T11:14:49.308Z,135.50
2023-02-16T11:17:18.498Z,137.20
2023-02-16T11:19:55.401Z,122.20
2023-02-16T11:22:31.415Z,129.82
2023-02-16T11:25:14.822Z,133.98
2023-02-16T11:27:50.627Z,125.72
2023-02-16T11:30:23.387Z,126.15
2023-02-16T11:32:51.551Z,131.25
2023-02-16T11:35:19.399Z,131.40
2023-02-16T11:37:47.244Z,135.07
2023-02-16T11:40:24.315Z,132.02
2023-02-16T11:42:54.066Z,133.18
2023-02-16T11:45:31.274Z,132.32
2023-02-16T11:48:02.570Z,134.18
2023-02-16T11:50:31.636Z,130.88
2023-02-16T11:53:14.910Z,130.85
2023-02-16T11:55:44.014Z,132.32
2023-02-16T11:58:26.460Z,132.07
2023-02-16T12:01:13.071Z,133.93
2023-02-16T12:03:57.119Z,135.70
2023-02-16T12:06:34.847Z,135.18
2023-02-16T12:09:18.836Z,132.68
2023-02-16T12:11:55.849Z,136.05
2023-02-16T12:14:30.585Z,134.50
2023-02-16T12:16:58.515Z,129.90
2023-02-16T12:19:44.942Z,132.52
2023-02-16T12:22:16.438Z,139.40
2023-02-16T12:24:50.254Z,127.20
2023-02-16T12:27:26.842Z,134.73
2023-02-16T12:29:57.464Z,141.07
2023-02-16T12:32:30.302Z,128.18
2023-02-16T12:34:58.394Z,133.73
2023-02-16T12:37:26.829Z,128.30
2023-02-16T12:39:54.615Z,132.48
2023-02-16T12:42:22.399Z,134.73
2023-02-16T12:44:55.743Z,126.55
2023-02-16T12:47:29.698Z,128.25
2023-02-16T12:50:01.061Z,129.50
2023-02-16T12:52:34.211Z,132.07
2023-02-16T12:55:17.718Z,132.35
2023-02-16T12:57:57.436Z,121.00
2023-02-16T13:00:49.566Z,123.72
2023-02-16T13:03:21.193Z,126.07
2023-02-16T13:05:58.104Z,115.97
2023-02-16T13:08:44.953Z,130.95
2023-02-16T13:11:22.803Z,119.28
2023-02-16T13:13:52.595Z,129.45
2023-02-16T13:16:43.175Z,128.55
2023-02-16T13:19:13.147Z,120.68
2023-02-16T13:21:51.192Z,116.90
2023-02-16T13:24:26.283Z,129.45
2023-02-16T13:27:12.717Z,120.53
2023-02-16T13:29:54.574Z,125.18
2023-02-16T13:32:40.924Z,121.80
2023-02-16T13:35:32.890Z,125.72
2023-02-16T13:38:29.918Z,127.13
2023-02-16T13:41:20.724Z,127.55
2023-02-16T13:43:48.572Z,125.60
2023-02-16T13:46:22.447Z,126.45
2023-02-16T13:48:52.353Z,127.72
2023-02-16T13:51:21.986Z,124.15
2023-02-16T13:53:52.659Z,135.98
2023-02-16T13:56:22.620Z,129.30
2023-02-16T13:58:51.867Z,138.40
2023-02-16T14:01:39.138Z,135.57
2023-02-16T14:04:12.246Z,138.32
2023-02-16T14:06:42.778Z,132.52
2023-02-16T14:09:13.537Z,139.77
2023-02-16T14:11:53.716Z,137.20
2023-02-16T14:14:40.317Z,146.27
2023-02-16T14:17:17.559Z,133.27
2023-02-16T14:20:04.898Z,143.80
2023-02-16T14:22:41.738Z,143.70
2023-02-16T14:25:32.284Z,152.27
2023-02-16T14:28:20.846Z,139.77
2023-02-16T14:31:03.727Z,141.93
2023-02-16T14:33:37.779Z,147.35
2023-02-16T14:36:27.679Z,145.43
2023-02-16T14:38:58.399Z,145.45
2023-02-16T14:41:32.235Z,155.27
2023-02-16T14:44:17.790Z,144.27
2023-02-16T14:47:04.341Z,147.85
2023-02-16T14:49:41.460Z,140.52
2023-02-16T14:52:18.393Z,143.85
2023-02-16T14:55:05.056Z,149.95
2023-02-16T14:57:43.553Z,153.82
2023-02-16T15:00:19.804Z,147.48
2023-02-16T15:02:57.077Z,159.00
2023-02-16T15:05:29.771Z,156.25
2023-02-16T15:08:03.790Z,159.15
2023-02-16T15:10:32.319Z,157.07
2023-02-16T15:13:02.167Z,159.23
2023-02-16T15:15:42.290Z,166.48
2023-02-16T15:18:23.857Z,157.52
2023-02-16T15:20:53.591Z,159.73
2023-02-16T15:23:29.913Z,166.55
2023-02-16T15:26:19.998Z,156.23
2023-02-16T15:29:13.418Z,169.23
2023-02-16T15:31:41.432Z,162.02
2023-02-16T15:34:14.292Z,154.90
2023-02-16T15:36:43.662Z,170.52
2023-02-16T15:39:15.683Z,172.07
2023-02-16T15:42:31.818Z,165.55
2023-02-16T15:44:59.765Z,163.20
2023-02-16T15:47:27.618Z,173.50
2023-02-16T15:49:55.480Z,170.68
2023-02-16T15:52:51.013Z,180.82
2023-02-16T15:55:18.888Z,184.38
2023-02-16T15:57:46.837Z,181.93
2023-02-16T16:00:19.351Z,167.93
2023-02-16T16:02:52.185Z,175.97
2023-02-16T16:05:23.032Z,175.65
2023-02-16T16:07:51.468Z,184.40
2023-02-16T16:10:23.005Z,186.05
2023-02-16T16:12:59.669Z,184.85
2023-02-16T16:15:30.385Z,179.07
2023-02-16T16:18:00.952Z,189.95
2023-02-16T16:20:36.033Z,178.07
2023-02-16T16:23:06.588Z,189.35
2023-02-16T16:25:39.268Z,184.70
2023-02-16T16:28:08.450Z,189.18
2023-02-16T16:30:43.712Z,189.63
2023-02-16T16:33:13.386Z,193.25
2023-02-16T16:35:41.229Z,183.80
2023-02-16T16:38:21.813Z,183.27
2023-02-16T16:40:51.865Z,180.88
2023-02-16T16:43:21.248Z,175.50
2023-02-16T16:45:50.165Z,173.25
2023-02-16T16:48:17.994Z,191.95
2023-02-16T16:50:46.516Z,186.68
2023-02-16T16:53:29.721Z,188.27
2023-02-16T16:55:59.624Z,181.93
2023-02-16T16:58:28.468Z,186.43
2023-02-16T17:00:56.263Z,178.73
2023-02-16T17:03:24.077Z,187.65
2023-02-16T17:05:51.859Z,197.57
2023-02-16T17:08:19.763Z,191.25
2023-02-16T17:10:47.575Z,190.35
2023-02-16T17:13:16.608Z,199.15
2023-02-16T17:15:59.542Z,197.88
2023-02-16T17:18:27.496Z,201.75
2023-02-16T17:20:55.348Z,207.20
2023-02-16T17:23:23.823Z,194.45
2023-02-16T17:25:51.703Z,195.52
2023-02-16T17:28:20.661Z,197.55
2023-02-16T17:30:48.832Z,208.43
2023-02-16T17:33:16.648Z,203.25
2023-02-16T17:35:44.491Z,196.25
2023-02-16T17:38:14.544Z,197.07
2023-02-16T17:40:43.846Z,207.02
2023-02-16T17:43:12.883Z,195.02
2023-02-16T17:45:41.037Z,216.95
2023-02-16T17:48:09.172Z,212.70
2023-02-16T17:50:37.204Z,208.15
2023-02-16T17:53:12.067Z,205.45
2023-02-16T17:55:39.952Z,217.60
2023-02-16T17:58:07.845Z,216.27
2023-02-16T18:00:36.001Z,222.07
2023-02-16T18:03:03.897Z,219.73
2023-02-16T18:05:31.882Z,211.40
2023-02-16T18:07:59.981Z,221.02
2023-02-16T18:10:32.976Z,227.52
2023-02-16T18:13:00.921Z,225.40
2023-02-16T18:15:28.936Z,218.93
2023-02-16T18:17:57.093Z,219.38
2023-02-16T18:20:25.362Z,217.80
2023-02-16T18:22:55.774Z,219.95
2023-02-16T18:25:23.605Z,230.43
2023-02-16T18:27:51.432Z,222.02
2023-02-16T18:30:19.364Z,223.30
2023-02-16T18:32:47.669Z,223.20
2023-02-16T18:35:15.904Z,227.07
2023-02-16T18:37:43.968Z,235.02
2023-02-16T18:40:13.235Z,238.25
2023-02-16T18:42:41.128Z,236.98
2023-02-16T18:45:09.216Z,242.13
2023-02-16T18:47:37.041Z,237.13
2023-02-16T18:50:05.624Z,241.88
2023-02-16T18:52:33.396Z,233.27
2023-02-16T18:55:01.300Z,246.48
2023-02-16T18:57:29.104Z,252.77
2023-02-16T18:59:59.644Z,242.05
2023-02-16T19:02:28.494Z,246.90
2023-02-16T19:04:56.296Z,255.20
2023-02-16T19:07:24.075Z,249.77
2023-02-16T19:09:55.325Z,261.38
2023-02-16T19:12:23.586Z,260.27
2023-02-16T19:14:51.460Z,252.05
2023-02-16T19:17:19.669Z,266.90
2023-02-16T19:19:47.535Z,261.65
2023-02-16T19:22:15.343Z,268.88
2023-02-16T19:24:43.138Z,254.15
2023-02-16T19:27:10.990Z,273.83
2023-02-16T19:29:38.878Z,252.48
2023-02-16T19:32:06.762Z,263.65
2023-02-16T19:34:35.134Z,261.33
2023-02-16T19:37:03.008Z,244.18
2023-02-16T19:39:30.858Z,249.75
2023-02-16T19:41:59.913Z,268.25
2023-02-16T19:44:27.795Z,267.92
2023-02-16T19:46:55.607Z,266.73
2023-02-16T19:49:23.514Z,274.63
2023-02-16T19:51:51.534Z,279.08
2023-02-16T19:54:19.357Z,278.88
2023-02-16T19:56:47.215Z,279.48
2023-02-16T19:59:16.600Z,274.85
2023-02-16T20:01:44.514Z,265.42
2023-02-16T20:04:13.102Z,280.50
2023-02-16T20:06:41.943Z,285.20
2023-02-16T20:09:12.252Z,277.75
2023-02-16T20:11:40.990Z,275.23
2023-02-16T20:14:08.895Z,280.83
2023-02-16T20:16:36.796Z,291.67
2023-02-16T20:19:04.906Z,309.05
2023-02-16T20:21:36.574Z,297.35
2023-02-16T20:24:05.454Z,292.92
2023-02-16T20:26:39.126Z,280.90
2023-02-16T20:29:08.137Z,300.38
2023-02-16T20:31:41.235Z,293.00
2023-02-16T20:34:09.836Z,297.17
2023-02-16T20:36:38.037Z,283.10
2023-02-16T20:39:06.650Z,291.55
2023-02-16T20:41:34.817Z,299.20
2023-02-16T20:44:03.029Z,303.40
2023-02-16T20:46:30.939Z,300.90
2023-02-16T20:48:59.896Z,315.10
2023-02-16T20:51:27.959Z,304.40
2023-02-16T20:53:55.776Z,316.30
2023-02-16T20:56:24.710Z,313.55
2023-02-16T20:58:53.585Z,306.58
2023-02-16T21:01:24.433Z,321.70
2023-02-16T21:03:52.697Z,315.38
2023-02-16T21:06:20.555Z,312.40
2023-02-16T21:08:48.559Z,323.33
2023-02-16T21:11:16.565Z,308.42
2023-02-16T21:13:44.444Z,308.40
2023-02-16T21:16:13.934Z,312.65
2023-02-16T21:18:41.811Z,316.48
2023-02-16T21:21:15.282Z,297.27
2023-02-16T21:23:48.108Z,300.35
2023-02-16T21:26:16.683Z,310.77
2023-02-16T21:28:44.768Z,308.58
2023-02-16T21:31:14.393Z,312.58
2023-02-16T21:33:42.296Z,319.77
2023-02-16T21:36:11.986Z,308.38
2023-02-16T21:38:40.786Z,302.70
2023-02-16T21:41:29.330Z,320.85
2023-02-16T21:44:10.621Z,308.70
2023-02-16T21:46:43.104Z,330.85
2023-02-16T21:49:16.022Z,321.23
2023-02-16T21:51:44.790Z,319.40
2023-02-16T21:54:14.636Z,306.33
2023-02-16T21:56:43.982Z,317.05
2023-02-16T21:59:14.016Z,312.77
2023-02-16T22:01:43.767Z,330.25
2023-02-16T22:04:13.381Z,317.13
2023-02-16T22:06:43.581Z,315.42
2023-02-16T22:09:12.903Z,304.35
2023-02-16T22:11:41.181Z,315.13
2023-02-16T22:14:09.943Z,302.67
2023-02-16T22:16:38.457Z,316.85
2023-02-16T22:19:11.733Z,306.58
2023-02-16T22:24:07.725Z,300.50
2023-02-16T22:26:36.243Z,306.73
2023-02-16T22:29:05.364Z,328.45
2023-02-16T22:31:33.482Z,298.08
2023-02-16T22:34:12.926Z,301.80
2023-02-16T22:36:40.827Z,300.60
2023-02-16T22:39:09.096Z,289.70
2023-02-16T22:41:37.020Z,303.48
2023-02-16T22:44:05.795Z,285.27
2023-02-16T22:46:33.808Z,295.95
2023-02-16T22:49:02.089Z,305.95
2023-02-16T22:51:33.607Z,315.65
2023-02-16T22:54:02.132Z,294.63
2023-02-16T22:56:30.510Z,295.17
2023-02-16T22:58:59.016Z,295.92
2023-02-16T23:01:27.784Z,292.63
2023-02-16T23:03:57.535Z,302.23
2023-02-16T23:06:30.314Z,292.38
2023-02-16T23:08:59.215Z,299.55
2023-02-16T23:11:27.796Z,303.40
2023-02-16T23:13:55.637Z,311.35
2023-02-16T23:16:24.225Z,298.45
2023-02-16T23:18:52.995Z,297.63
2023-02-16T23:21:22.646Z,297.77
2023-02-16T23:23:51.368Z,282.90
2023-02-16T23:26:19.602Z,289.85
2023-02-16T23:28:50.687Z,297.08
2023-02-16T23:31:19.738Z,289.88
2023-02-16T23:33:47.912Z,285.60
2023-02-16T23:36:15.844Z,282.52
2023-02-16T23:38:43.703Z,292.10
2023-02-16T23:41:12.502Z,282.70
2023-02-16T23:43:40.755Z,291.90
2023-02-16T23:46:09.531Z,287.77
2023-02-16T23:48:38.486Z,301.85
2023-02-16T23:51:06.662Z,294.48
2023-02-16T23:53:34.784Z,285.55
2023-02-16T23:56:04.962Z,270.73
2023-02-16T23:58:37.456Z,277.40
